sensor_id;sensor_type;location;lat;lon;timestamp;temperature;humidity
25366;DHT22;13315;48.274;-1.900;2022-11-15T00:01:45;19.40;70.70
25366;DHT22;13315;48.274;-1.900;2022-11-15T00:04:10;19.40;70.80
25366;DHT22;13315;48.274;-1.900;2022-11-15T00:06:36;19.40;70.70
25366;DHT22;13315;48.274;-1.900;2022-11-15T00:09:02;19.40;70.90
25366;DHT22;13315;48.274;-1.900;2022-11-15T00:11:28;19.40;70.80
25366;DHT22;13315;48.274;-1.900;2022-11-15T00:13:56;19.30;70.70
25366;DHT22;13315;48.274;-1.900;2022-11-15T00:16:22;19.30;70.80
25366;DHT22;13315;48.274;-1.900;2022-11-15T00:18:48;19.30;70.70
25366;DHT22;13315;48.274;-1.900;2022-11-15T00:21:14;19.30;70.70
25366;DHT22;13315;48.274;-1.900;2022-11-15T00:23:41;19.30;70.70
25366;DHT22;13315;48.274;-1.900;2022-11-15T00:26:11;19.30;70.40
25366;DHT22;13315;48.274;-1.900;2022-11-15T00:28:37;19.30;70.40
25366;DHT22;13315;48.274;-1.900;2022-11-15T00:31:05;19.30;70.20
25366;DHT22;13315;48.274;-1.900;2022-11-15T00:33:32;19.20;70.20
25366;DHT22;13315;48.274;-1.900;2022-11-15T00:36:06;19.10;70.40
25366;DHT22;13315;48.274;-1.900;2022-11-15T00:38:33;19.00;70.60
25366;DHT22;13315;48.274;-1.900;2022-11-15T00:41:00;19.00;70.80
25366;DHT22;13315;48.274;-1.900;2022-11-15T00:43:26;18.90;70.90
25366;DHT22;13315;48.274;-1.900;2022-11-15T00:45:52;18.90;71.30
25366;DHT22;13315;48.274;-1.900;2022-11-15T00:48:18;18.80;71.20
25366;DHT22;13315;48.274;-1.900;2022-11-15T00:50:43;18.80;71.30
25366;DHT22;13315;48.274;-1.900;2022-11-15T00:53:09;18.70;71.70
25366;DHT22;13315;48.274;-1.900;2022-11-15T00:55:35;18.60;71.70
25366;DHT22;13315;48.274;-1.900;2022-11-15T00:58:00;18.60;71.80
25366;DHT22;13315;48.274;-1.900;2022-11-15T01:00:26;18.50;72.00
25366;DHT22;13315;48.274;-1.900;2022-11-15T01:02:52;18.40;72.20
25366;DHT22;13315;48.274;-1.900;2022-11-15T01:05:18;18.40;72.20
25366;DHT22;13315;48.274;-1.900;2022-11-15T01:07:44;18.40;72.20
25366;DHT22;13315;48.274;-1.900;2022-11-15T01:10:09;18.30;72.40
25366;DHT22;13315;48.274;-1.900;2022-11-15T01:12:35;18.30;72.30
25366;DHT22;13315;48.274;-1.900;2022-11-15T01:15:01;18.30;72.40
25366;DHT22;13315;48.274;-1.900;2022-11-15T01:17:27;18.30;72.60
25366;DHT22;13315;48.274;-1.900;2022-11-15T01:19:53;18.20;72.50
25366;DHT22;13315;48.274;-1.900;2022-11-15T01:22:18;18.30;72.60
25366;DHT22;13315;48.274;-1.900;2022-11-15T01:24:44;18.20;72.40
25366;DHT22;13315;48.274;-1.900;2022-11-15T01:27:10;18.20;72.60
25366;DHT22;13315;48.274;-1.900;2022-11-15T01:29:36;18.20;72.50
25366;DHT22;13315;48.274;-1.900;2022-11-15T01:32:02;18.20;72.70
25366;DHT22;13315;48.274;-1.900;2022-11-15T01:34:27;18.20;72.60
25366;DHT22;13315;48.274;-1.900;2022-11-15T01:36:53;18.10;72.60
25366;DHT22;13315;48.274;-1.900;2022-11-15T01:39:19;18.10;72.60
25366;DHT22;13315;48.274;-1.900;2022-11-15T01:41:44;18.10;72.60
25366;DHT22;13315;48.274;-1.900;2022-11-15T01:44:48;18.10;72.60
25366;DHT22;13315;48.274;-1.900;2022-11-15T01:47:29;18.10;72.60
25366;DHT22;13315;48.274;-1.900;2022-11-15T01:50:12;18.10;72.60
25366;DHT22;13315;48.274;-1.900;2022-11-15T01:52:39;18.00;73.20
25366;DHT22;13315;48.274;-1.900;2022-11-15T01:55:13;18.00;72.60
25366;DHT22;13315;48.274;-1.900;2022-11-15T01:57:40;18.00;72.60
25366;DHT22;13315;48.274;-1.900;2022-11-15T02:00:08;18.00;72.60
25366;DHT22;13315;48.274;-1.900;2022-11-15T02:02:35;18.00;72.50
25366;DHT22;13315;48.274;-1.900;2022-11-15T02:05:02;18.00;72.60
25366;DHT22;13315;48.274;-1.900;2022-11-15T02:07:28;17.90;72.50
25366;DHT22;13315;48.274;-1.900;2022-11-15T02:09:55;17.90;72.60
25366;DHT22;13315;48.274;-1.900;2022-11-15T02:12:23;18.00;72.80
25366;DHT22;13315;48.274;-1.900;2022-11-15T02:14:52;17.90;72.50
25366;DHT22;13315;48.274;-1.900;2022-11-15T02:26:37;17.90;72.50
25366;DHT22;13315;48.274;-1.900;2022-11-15T02:29:18;17.90;72.40
25366;DHT22;13315;48.274;-1.900;2022-11-15T02:32:06;17.90;72.40
25366;DHT22;13315;48.274;-1.900;2022-11-15T02:40:15;17.90;72.40
25366;DHT22;13315;48.274;-1.900;2022-11-15T02:42:55;17.90;72.30
25366;DHT22;13315;48.274;-1.900;2022-11-15T02:45:47;17.90;72.30
25366;DHT22;13315;48.274;-1.900;2022-11-15T02:48:15;17.80;72.30
25366;DHT22;13315;48.274;-1.900;2022-11-15T02:50:42;17.90;72.30
25366;DHT22;13315;48.274;-1.900;2022-11-15T02:53:09;17.80;72.20
25366;DHT22;13315;48.274;-1.900;2022-11-15T02:55:37;17.90;72.20
25366;DHT22;13315;48.274;-1.900;2022-11-15T02:58:31;17.90;72.20
25366;DHT22;13315;48.274;-1.900;2022-11-15T03:01:04;17.90;72.30
25366;DHT22;13315;48.274;-1.900;2022-11-15T03:09:05;17.80;72.20
25366;DHT22;13315;48.274;-1.900;2022-11-15T03:11:37;17.80;72.00
25366;DHT22;13315;48.274;-1.900;2022-11-15T03:14:29;17.90;72.00
25366;DHT22;13315;48.274;-1.900;2022-11-15T03:17:13;17.80;72.00
25366;DHT22;13315;48.274;-1.900;2022-11-15T03:19:49;17.80;71.90
25366;DHT22;13315;48.274;-1.900;2022-11-15T03:22:18;17.80;71.90
25366;DHT22;13315;48.274;-1.900;2022-11-15T03:24:48;17.90;71.80
25366;DHT22;13315;48.274;-1.900;2022-11-15T03:27:21;17.80;71.80
25366;DHT22;13315;48.274;-1.900;2022-11-15T03:29:51;17.80;71.70
25366;DHT22;13315;48.274;-1.900;2022-11-15T03:32:23;17.80;71.80
25366;DHT22;13315;48.274;-1.900;2022-11-15T03:34:53;17.80;71.90
25366;DHT22;13315;48.274;-1.900;2022-11-15T03:37:27;17.80;71.90
25366;DHT22;13315;48.274;-1.900;2022-11-15T03:39:55;17.80;71.90
25366;DHT22;13315;48.274;-1.900;2022-11-15T03:42:22;17.80;71.80
25366;DHT22;13315;48.274;-1.900;2022-11-15T03:45:08;17.80;71.80
25366;DHT22;13315;48.274;-1.900;2022-11-15T03:47:51;17.80;71.90
25366;DHT22;13315;48.274;-1.900;2022-11-15T03:50:20;17.80;71.90
25366;DHT22;13315;48.274;-1.900;2022-11-15T03:52:48;17.80;71.90
25366;DHT22;13315;48.274;-1.900;2022-11-15T03:55:18;17.80;71.90
25366;DHT22;13315;48.274;-1.900;2022-11-15T03:57:44;17.80;71.90
25366;DHT22;13315;48.274;-1.900;2022-11-15T04:00:11;17.80;71.90
25366;DHT22;13315;48.274;-1.900;2022-11-15T04:02:37;17.80;71.90
25366;DHT22;13315;48.274;-1.900;2022-11-15T04:05:03;17.70;71.80
25366;DHT22;13315;48.274;-1.900;2022-11-15T04:07:29;17.80;71.90
25366;DHT22;13315;48.274;-1.900;2022-11-15T04:09:55;17.80;71.80
25366;DHT22;13315;48.274;-1.900;2022-11-15T04:12:39;17.70;72.00
25366;DHT22;13315;48.274;-1.900;2022-11-15T04:15:09;17.70;72.00
25366;DHT22;13315;48.274;-1.900;2022-11-15T04:17:42;17.70;72.10
25366;DHT22;13315;48.274;-1.900;2022-11-15T04:20:15;17.70;72.20
25366;DHT22;13315;48.274;-1.900;2022-11-15T04:23:01;17.60;72.10
25366;DHT22;13315;48.274;-1.900;2022-11-15T04:25:46;17.60;72.10
25366;DHT22;13315;48.274;-1.900;2022-11-15T04:28:14;17.60;72.10
25366;DHT22;13315;48.274;-1.900;2022-11-15T04:30:40;17.60;72.10
25366;DHT22;13315;48.274;-1.900;2022-11-15T04:33:06;17.60;72.00
25366;DHT22;13315;48.274;-1.900;2022-11-15T04:35:32;17.60;72.10
25366;DHT22;13315;48.274;-1.900;2022-11-15T04:37:58;17.60;72.00
25366;DHT22;13315;48.274;-1.900;2022-11-15T04:40:24;17.60;72.10
25366;DHT22;13315;48.274;-1.900;2022-11-15T04:42:50;17.60;72.10
25366;DHT22;13315;48.274;-1.900;2022-11-15T04:45:16;17.60;72.10
25366;DHT22;13315;48.274;-1.900;2022-11-15T04:47:44;17.60;72.10
25366;DHT22;13315;48.274;-1.900;2022-11-15T04:50:11;17.60;72.10
25366;DHT22;13315;48.274;-1.900;2022-11-15T04:52:44;17.60;72.10
25366;DHT22;13315;48.274;-1.900;2022-11-15T04:55:15;17.60;72.10
25366;DHT22;13315;48.274;-1.900;2022-11-15T04:57:40;17.60;72.10
25366;DHT22;13315;48.274;-1.900;2022-11-15T05:00:10;17.60;72.20
25366;DHT22;13315;48.274;-1.900;2022-11-15T05:02:36;17.60;72.20
25366;DHT22;13315;48.274;-1.900;2022-11-15T05:05:20;17.60;72.10
25366;DHT22;13315;48.274;-1.900;2022-11-15T05:07:46;17.60;72.20
25366;DHT22;13315;48.274;-1.900;2022-11-15T05:10:12;17.60;72.20
25366;DHT22;13315;48.274;-1.900;2022-11-15T05:12:38;17.60;72.20
25366;DHT22;13315;48.274;-1.900;2022-11-15T05:15:04;17.60;72.30
25366;DHT22;13315;48.274;-1.900;2022-11-15T05:17:30;17.60;72.20
25366;DHT22;13315;48.274;-1.900;2022-11-15T05:19:55;17.60;72.20
25366;DHT22;13315;48.274;-1.900;2022-11-15T05:22:21;17.60;72.30
25366;DHT22;13315;48.274;-1.900;2022-11-15T05:24:47;17.60;72.20
25366;DHT22;13315;48.274;-1.900;2022-11-15T05:27:13;17.60;72.30
25366;DHT22;13315;48.274;-1.900;2022-11-15T05:29:39;17.50;72.20
25366;DHT22;13315;48.274;-1.900;2022-11-15T05:32:05;17.50;72.20
25366;DHT22;13315;48.274;-1.900;2022-11-15T05:34:32;17.50;72.30
25366;DHT22;13315;48.274;-1.900;2022-11-15T05:36:58;17.50;72.30
25366;DHT22;13315;48.274;-1.900;2022-11-15T05:39:24;17.50;72.40
25366;DHT22;13315;48.274;-1.900;2022-11-15T05:42:11;17.50;72.40
25366;DHT22;13315;48.274;-1.900;2022-11-15T05:44:39;17.50;72.50
25366;DHT22;13315;48.274;-1.900;2022-11-15T05:47:08;17.50;72.40
25366;DHT22;13315;48.274;-1.900;2022-11-15T05:49:38;17.50;72.50
25366;DHT22;13315;48.274;-1.900;2022-11-15T05:52:07;17.50;72.50
25366;DHT22;13315;48.274;-1.900;2022-11-15T05:54:36;17.50;72.50
25366;DHT22;13315;48.274;-1.900;2022-11-15T05:57:04;17.50;72.50
25366;DHT22;13315;48.274;-1.900;2022-11-15T05:59:31;17.50;72.50
25366;DHT22;13315;48.274;-1.900;2022-11-15T06:01:57;17.50;72.50
25366;DHT22;13315;48.274;-1.900;2022-11-15T06:04:23;17.40;72.50
25366;DHT22;13315;48.274;-1.900;2022-11-15T06:06:48;17.40;72.40
25366;DHT22;13315;48.274;-1.900;2022-11-15T06:09:14;17.50;72.60
25366;DHT22;13315;48.274;-1.900;2022-11-15T06:11:40;17.40;72.50
25366;DHT22;13315;48.274;-1.900;2022-11-15T06:14:06;17.40;72.60
25366;DHT22;13315;48.274;-1.900;2022-11-15T06:16:31;17.40;72.60
25366;DHT22;13315;48.274;-1.900;2022-11-15T06:18:57;17.40;72.60
25366;DHT22;13315;48.274;-1.900;2022-11-15T06:21:23;17.40;72.60
25366;DHT22;13315;48.274;-1.900;2022-11-15T06:23:49;17.40;72.60
25366;DHT22;13315;48.274;-1.900;2022-11-15T06:26:15;17.40;72.70
25366;DHT22;13315;48.274;-1.900;2022-11-15T06:28:40;17.40;72.70
25366;DHT22;13315;48.274;-1.900;2022-11-15T06:31:09;17.40;72.70
25366;DHT22;13315;48.274;-1.900;2022-11-15T06:33:37;17.40;72.80
25366;DHT22;13315;48.274;-1.900;2022-11-15T06:36:04;17.40;72.70
25366;DHT22;13315;48.274;-1.900;2022-11-15T06:38:30;17.40;72.80
25366;DHT22;13315;48.274;-1.900;2022-11-15T06:41:04;17.40;72.70
25366;DHT22;13315;48.274;-1.900;2022-11-15T06:43:31;17.30;74.10
25366;DHT22;13315;48.274;-1.900;2022-11-15T06:45:58;16.80;75.50
25366;DHT22;13315;48.274;-1.900;2022-11-15T06:48:26;16.50;76.60
25366;DHT22;13315;48.274;-1.900;2022-11-15T06:50:55;16.30;77.30
25366;DHT22;13315;48.274;-1.900;2022-11-15T06:53:22;16.30;77.80
25366;DHT22;13315;48.274;-1.900;2022-11-15T06:55:48;16.20;78.00
25366;DHT22;13315;48.274;-1.900;2022-11-15T06:58:15;16.20;78.10
25366;DHT22;13315;48.274;-1.900;2022-11-15T07:00:41;16.20;78.20
25366;DHT22;13315;48.274;-1.900;2022-11-15T07:03:08;16.20;78.30
25366;DHT22;13315;48.274;-1.900;2022-11-15T07:05:37;16.20;78.50
25366;DHT22;13315;48.274;-1.900;2022-11-15T07:08:03;16.20;78.40
25366;DHT22;13315;48.274;-1.900;2022-11-15T07:10:30;16.20;78.50
25366;DHT22;13315;48.274;-1.900;2022-11-15T07:12:56;16.20;78.60
25366;DHT22;13315;48.274;-1.900;2022-11-15T07:15:24;16.20;78.70
25366;DHT22;13315;48.274;-1.900;2022-11-15T07:17:50;16.30;79.70
25366;DHT22;13315;48.274;-1.900;2022-11-15T07:20:17;16.30;80.10
25366;DHT22;13315;48.274;-1.900;2022-11-15T07:22:43;16.30;80.00
25366;DHT22;13315;48.274;-1.900;2022-11-15T07:25:11;16.30;79.90
25366;DHT22;13315;48.274;-1.900;2022-11-15T07:27:37;16.40;80.00
25366;DHT22;13315;48.274;-1.900;2022-11-15T07:30:04;16.40;79.80
25366;DHT22;13315;48.274;-1.900;2022-11-15T07:32:30;16.50;79.40
25366;DHT22;13315;48.274;-1.900;2022-11-15T07:34:56;16.50;78.70
25366;DHT22;13315;48.274;-1.900;2022-11-15T07:37:22;16.50;78.30
25366;DHT22;13315;48.274;-1.900;2022-11-15T07:39:47;16.50;78.10
25366;DHT22;13315;48.274;-1.900;2022-11-15T07:42:13;16.50;77.90
25366;DHT22;13315;48.274;-1.900;2022-11-15T07:44:57;16.60;78.50
25366;DHT22;13315;48.274;-1.900;2022-11-15T07:47:23;16.60;78.50
25366;DHT22;13315;48.274;-1.900;2022-11-15T07:49:49;16.70;78.20
25366;DHT22;13315;48.274;-1.900;2022-11-15T07:52:14;16.70;78.00
25366;DHT22;13315;48.274;-1.900;2022-11-15T07:54:40;16.80;78.00
25366;DHT22;13315;48.274;-1.900;2022-11-15T07:57:06;16.80;77.80
25366;DHT22;13315;48.274;-1.900;2022-11-15T07:59:34;16.80;77.80
25366;DHT22;13315;48.274;-1.900;2022-11-15T08:02:00;16.80;77.60
25366;DHT22;13315;48.274;-1.900;2022-11-15T08:04:26;16.80;77.40
25366;DHT22;13315;48.274;-1.900;2022-11-15T08:06:52;16.70;77.30
25366;DHT22;13315;48.274;-1.900;2022-11-15T08:09:17;16.70;77.20
25366;DHT22;13315;48.274;-1.900;2022-11-15T08:11:43;16.70;77.10
25366;DHT22;13315;48.274;-1.900;2022-11-15T08:14:09;16.70;77.10
25366;DHT22;13315;48.274;-1.900;2022-11-15T08:16:35;16.70;77.20
25366;DHT22;13315;48.274;-1.900;2022-11-15T08:19:00;16.70;77.00
25366;DHT22;13315;48.274;-1.900;2022-11-15T08:21:26;16.80;77.70
25366;DHT22;13315;48.274;-1.900;2022-11-15T08:23:52;16.70;77.30
25366;DHT22;13315;48.274;-1.900;2022-11-15T08:26:17;16.80;77.20
25366;DHT22;13315;48.274;-1.900;2022-11-15T08:28:43;16.70;77.20
25366;DHT22;13315;48.274;-1.900;2022-11-15T08:31:15;16.70;77.30
25366;DHT22;13315;48.274;-1.900;2022-11-15T08:33:42;16.70;77.30
25366;DHT22;13315;48.274;-1.900;2022-11-15T08:36:10;16.70;77.40
25366;DHT22;13315;48.274;-1.900;2022-11-15T08:38:36;16.70;77.40
25366;DHT22;13315;48.274;-1.900;2022-11-15T08:41:03;16.70;77.60
25366;DHT22;13315;48.274;-1.900;2022-11-15T08:43:29;16.60;77.70
25366;DHT22;13315;48.274;-1.900;2022-11-15T08:45:55;16.60;77.80
25366;DHT22;13315;48.274;-1.900;2022-11-15T08:48:21;16.60;77.90
25366;DHT22;13315;48.274;-1.900;2022-11-15T08:50:47;16.60;77.90
25366;DHT22;13315;48.274;-1.900;2022-11-15T08:53:13;16.60;78.00
25366;DHT22;13315;48.274;-1.900;2022-11-15T08:55:40;16.50;77.90
25366;DHT22;13315;48.274;-1.900;2022-11-15T08:58:06;16.50;78.00
25366;DHT22;13315;48.274;-1.900;2022-11-15T09:00:33;16.50;78.60
25366;DHT22;13315;48.274;-1.900;2022-11-15T09:02:59;16.50;78.10
25366;DHT22;13315;48.274;-1.900;2022-11-15T09:05:25;16.50;78.20
25366;DHT22;13315;48.274;-1.900;2022-11-15T09:07:54;16.50;78.20
25366;DHT22;13315;48.274;-1.900;2022-11-15T09:10:20;16.50;78.30
25366;DHT22;13315;48.274;-1.900;2022-11-15T09:12:47;16.50;78.30
25366;DHT22;13315;48.274;-1.900;2022-11-15T09:15:14;16.40;78.30
25366;DHT22;13315;48.274;-1.900;2022-11-15T09:17:41;16.40;78.90
25366;DHT22;13315;48.274;-1.900;2022-11-15T09:20:07;16.40;78.40
25366;DHT22;13315;48.274;-1.900;2022-11-15T09:22:33;16.40;78.40
25366;DHT22;13315;48.274;-1.900;2022-11-15T09:24:59;16.40;78.50
25366;DHT22;13315;48.274;-1.900;2022-11-15T09:27:29;16.40;78.50
25366;DHT22;13315;48.274;-1.900;2022-11-15T09:29:55;16.40;78.50
25366;DHT22;13315;48.274;-1.900;2022-11-15T09:32:21;16.40;78.50
25366;DHT22;13315;48.274;-1.900;2022-11-15T09:34:49;16.40;78.50
25366;DHT22;13315;48.274;-1.900;2022-11-15T09:37:14;16.40;79.20
25366;DHT22;13315;48.274;-1.900;2022-11-15T09:39:40;16.40;78.60
25366;DHT22;13315;48.274;-1.900;2022-11-15T09:44:56;16.40;78.80
25366;DHT22;13315;48.274;-1.900;2022-11-15T09:50:10;16.30;78.80
25366;DHT22;13315;48.274;-1.900;2022-11-15T09:52:37;16.40;78.80
25366;DHT22;13315;48.274;-1.900;2022-11-15T09:55:05;16.40;78.80
25366;DHT22;13315;48.274;-1.900;2022-11-15T10:06:01;16.40;78.90
25366;DHT22;13315;48.274;-1.900;2022-11-15T10:11:23;16.30;78.90
25366;DHT22;13315;48.274;-1.900;2022-11-15T10:13:52;16.30;78.80
25366;DHT22;13315;48.274;-1.900;2022-11-15T10:24:27;16.30;78.80
25366;DHT22;13315;48.274;-1.900;2022-11-15T10:26:56;16.30;78.80
25366;DHT22;13315;48.274;-1.900;2022-11-15T10:29:23;16.30;78.80
25366;DHT22;13315;48.274;-1.900;2022-11-15T10:31:49;16.30;78.80
25366;DHT22;13315;48.274;-1.900;2022-11-15T10:34:18;16.40;78.80
25366;DHT22;13315;48.274;-1.900;2022-11-15T10:36:45;16.30;78.80
25366;DHT22;13315;48.274;-1.900;2022-11-15T10:39:12;16.40;78.80
25366;DHT22;13315;48.274;-1.900;2022-11-15T10:41:39;16.40;78.80
25366;DHT22;13315;48.274;-1.900;2022-11-15T10:44:24;16.40;78.80
25366;DHT22;13315;48.274;-1.900;2022-11-15T10:49:20;16.40;78.70
25366;DHT22;13315;48.274;-1.900;2022-11-15T10:51:51;16.40;78.70
25366;DHT22;13315;48.274;-1.900;2022-11-15T10:54:25;16.40;78.80
25366;DHT22;13315;48.274;-1.900;2022-11-15T10:56:53;16.40;78.80
25366;DHT22;13315;48.274;-1.900;2022-11-15T10:59:32;16.40;78.80
25366;DHT22;13315;48.274;-1.900;2022-11-15T11:01:59;16.40;78.80
25366;DHT22;13315;48.274;-1.900;2022-11-15T11:04:25;16.40;78.80
25366;DHT22;13315;48.274;-1.900;2022-11-15T11:06:52;16.40;78.80
25366;DHT22;13315;48.274;-1.900;2022-11-15T11:09:23;16.40;78.80
25366;DHT22;13315;48.274;-1.900;2022-11-15T11:11:49;16.40;78.80
25366;DHT22;13315;48.274;-1.900;2022-11-15T11:14:28;16.40;78.80
25366;DHT22;13315;48.274;-1.900;2022-11-15T11:19:46;16.40;78.90
25366;DHT22;13315;48.274;-1.900;2022-11-15T11:32:59;16.50;80.10
25366;DHT22;13315;48.274;-1.900;2022-11-15T11:35:43;16.50;79.70
25366;DHT22;13315;48.274;-1.900;2022-11-15T11:46:29;16.50;79.90
25366;DHT22;13315;48.274;-1.900;2022-11-15T11:49:00;16.50;80.30
25366;DHT22;13315;48.274;-1.900;2022-11-15T11:51:30;16.50;80.50
25366;DHT22;13315;48.274;-1.900;2022-11-15T11:54:00;16.50;80.60
25366;DHT22;13315;48.274;-1.900;2022-11-15T11:56:32;16.60;80.70
25366;DHT22;13315;48.274;-1.900;2022-11-15T11:59:05;16.60;80.80
25366;DHT22;13315;48.274;-1.900;2022-11-15T12:01:36;16.60;80.80
25366;DHT22;13315;48.274;-1.900;2022-11-15T12:04:09;16.60;80.90
25366;DHT22;13315;48.274;-1.900;2022-11-15T12:06:39;16.60;81.00
25366;DHT22;13315;48.274;-1.900;2022-11-15T12:11:50;16.60;81.00
25366;DHT22;13315;48.274;-1.900;2022-11-15T12:17:01;16.70;81.30
25366;DHT22;13315;48.274;-1.900;2022-11-15T12:19:27;16.70;81.20
25366;DHT22;13315;48.274;-1.900;2022-11-15T12:27:01;16.70;81.50
25366;DHT22;13315;48.274;-1.900;2022-11-15T12:29:31;16.70;81.60
25366;DHT22;13315;48.274;-1.900;2022-11-15T12:31:57;16.70;81.60
25366;DHT22;13315;48.274;-1.900;2022-11-15T12:36:55;16.80;81.80
25366;DHT22;13315;48.274;-1.900;2022-11-15T12:39:20;16.80;81.80
25366;DHT22;13315;48.274;-1.900;2022-11-15T13:02:22;16.70;81.50
25366;DHT22;13315;48.274;-1.900;2022-11-15T13:04:49;16.70;81.50
25366;DHT22;13315;48.274;-1.900;2022-11-15T13:10:00;16.70;81.50
25366;DHT22;13315;48.274;-1.900;2022-11-15T13:14:54;16.70;81.40
25366;DHT22;13315;48.274;-1.900;2022-11-15T13:19:48;16.70;81.40
25366;DHT22;13315;48.274;-1.900;2022-11-15T13:22:14;16.80;81.40
25366;DHT22;13315;48.274;-1.900;2022-11-15T13:25:00;16.80;81.30
25366;DHT22;13315;48.274;-1.900;2022-11-15T13:27:26;16.70;81.20
25366;DHT22;13315;48.274;-1.900;2022-11-15T13:29:52;16.80;81.30
25366;DHT22;13315;48.274;-1.900;2022-11-15T13:32:18;16.70;81.20
25366;DHT22;13315;48.274;-1.900;2022-11-15T13:34:44;16.80;81.50
25366;DHT22;13315;48.274;-1.900;2022-11-15T13:39:46;16.80;81.70
25366;DHT22;13315;48.274;-1.900;2022-11-15T13:42:16;16.80;81.30
25366;DHT22;13315;48.274;-1.900;2022-11-15T13:44:56;16.80;81.30
25366;DHT22;13315;48.274;-1.900;2022-11-15T13:47:21;16.80;81.50
25366;DHT22;13315;48.274;-1.900;2022-11-15T13:49:50;16.90;81.70
25366;DHT22;13315;48.274;-1.900;2022-11-15T13:52:16;16.90;81.60
25366;DHT22;13315;48.274;-1.900;2022-11-15T13:57:12;16.90;81.60
25366;DHT22;13315;48.274;-1.900;2022-11-15T13:59:48;16.90;81.60
25366;DHT22;13315;48.274;-1.900;2022-11-15T14:02:21;16.90;81.60
25366;DHT22;13315;48.274;-1.900;2022-11-15T14:04:52;16.90;81.50
25366;DHT22;13315;48.274;-1.900;2022-11-15T14:07:21;16.90;81.60
25366;DHT22;13315;48.274;-1.900;2022-11-15T14:09:47;16.90;81.70
25366;DHT22;13315;48.274;-1.900;2022-11-15T14:12:24;16.90;81.70
25366;DHT22;13315;48.274;-1.900;2022-11-15T14:14:52;16.90;81.10
25366;DHT22;13315;48.274;-1.900;2022-11-15T14:17:19;16.90;81.30
25366;DHT22;13315;48.274;-1.900;2022-11-15T14:19:45;16.90;81.30
25366;DHT22;13315;48.274;-1.900;2022-11-15T14:22:16;16.80;80.90
25366;DHT22;13315;48.274;-1.900;2022-11-15T14:24:43;16.80;81.30
25366;DHT22;13315;48.274;-1.900;2022-11-15T14:27:42;16.80;81.10
25366;DHT22;13315;48.274;-1.900;2022-11-15T14:30:01;16.80;81.40
25366;DHT22;13315;48.274;-1.900;2022-11-15T14:32:28;16.80;81.10
25366;DHT22;13315;48.274;-1.900;2022-11-15T14:34:57;16.80;81.10
25366;DHT22;13315;48.274;-1.900;2022-11-15T14:37:25;16.80;81.10
25366;DHT22;13315;48.274;-1.900;2022-11-15T14:39:51;16.80;80.70
25366;DHT22;13315;48.274;-1.900;2022-11-15T14:42:17;16.80;80.40
25366;DHT22;13315;48.274;-1.900;2022-11-15T14:44:43;16.70;80.10
25366;DHT22;13315;48.274;-1.900;2022-11-15T14:47:09;16.70;79.90
25366;DHT22;13315;48.274;-1.900;2022-11-15T14:49:35;16.70;80.30
25366;DHT22;13315;48.274;-1.900;2022-11-15T14:52:00;16.80;80.40
25366;DHT22;13315;48.274;-1.900;2022-11-15T14:54:26;16.80;80.20
25366;DHT22;13315;48.274;-1.900;2022-11-15T14:56:51;16.70;80.00
25366;DHT22;13315;48.274;-1.900;2022-11-15T14:59:17;16.70;79.60
25366;DHT22;13315;48.274;-1.900;2022-11-15T15:01:42;16.70;80.20
25366;DHT22;13315;48.274;-1.900;2022-11-15T15:04:09;16.70;80.00
25366;DHT22;13315;48.274;-1.900;2022-11-15T15:06:35;16.70;80.00
25366;DHT22;13315;48.274;-1.900;2022-11-15T15:09:01;16.70;80.20
25366;DHT22;13315;48.274;-1.900;2022-11-15T15:11:28;16.70;80.10
25366;DHT22;13315;48.274;-1.900;2022-11-15T15:13:54;16.70;80.20
25366;DHT22;13315;48.274;-1.900;2022-11-15T15:16:22;16.70;80.20
25366;DHT22;13315;48.274;-1.900;2022-11-15T15:18:49;16.70;80.20
25366;DHT22;13315;48.274;-1.900;2022-11-15T15:21:20;16.70;80.10
25366;DHT22;13315;48.274;-1.900;2022-11-15T15:23:46;16.70;80.10
25366;DHT22;13315;48.274;-1.900;2022-11-15T15:26:12;16.70;80.00
25366;DHT22;13315;48.274;-1.900;2022-11-15T15:28:37;16.70;80.00
25366;DHT22;13315;48.274;-1.900;2022-11-15T15:31:04;16.70;80.10
25366;DHT22;13315;48.274;-1.900;2022-11-15T15:33:30;16.70;80.20
25366;DHT22;13315;48.274;-1.900;2022-11-15T15:35:56;16.70;80.20
25366;DHT22;13315;48.274;-1.900;2022-11-15T15:38:21;16.60;80.10
25366;DHT22;13315;48.274;-1.900;2022-11-15T15:40:48;16.70;80.20
25366;DHT22;13315;48.274;-1.900;2022-11-15T15:43:13;16.60;80.00
25366;DHT22;13315;48.274;-1.900;2022-11-15T15:45:39;16.60;80.10
25366;DHT22;13315;48.274;-1.900;2022-11-15T15:48:09;16.60;80.30
25366;DHT22;13315;48.274;-1.900;2022-11-15T15:50:35;16.60;80.30
25366;DHT22;13315;48.274;-1.900;2022-11-15T15:53:02;16.60;80.30
25366;DHT22;13315;48.274;-1.900;2022-11-15T15:55:28;16.60;80.40
25366;DHT22;13315;48.274;-1.900;2022-11-15T15:57:54;16.60;80.40
25366;DHT22;13315;48.274;-1.900;2022-11-15T16:00:20;16.50;81.00
25366;DHT22;13315;48.274;-1.900;2022-11-15T16:02:46;16.50;80.50
25366;DHT22;13315;48.274;-1.900;2022-11-15T16:05:12;16.50;80.50
25366;DHT22;13315;48.274;-1.900;2022-11-15T16:07:38;16.50;80.40
25366;DHT22;13315;48.274;-1.900;2022-11-15T16:12:45;16.50;80.60
25366;DHT22;13315;48.274;-1.900;2022-11-15T16:15:11;16.40;80.60
25366;DHT22;13315;48.274;-1.900;2022-11-15T16:17:38;16.40;80.60
25366;DHT22;13315;48.274;-1.900;2022-11-15T16:20:05;16.40;80.70
25366;DHT22;13315;48.274;-1.900;2022-11-15T16:22:30;16.40;80.70
25366;DHT22;13315;48.274;-1.900;2022-11-15T16:24:56;16.40;80.70
25366;DHT22;13315;48.274;-1.900;2022-11-15T16:27:22;16.40;80.70
25366;DHT22;13315;48.274;-1.900;2022-11-15T16:29:48;16.40;80.80
25366;DHT22;13315;48.274;-1.900;2022-11-15T16:32:14;16.40;80.80
25366;DHT22;13315;48.274;-1.900;2022-11-15T16:34:40;16.40;80.80
25366;DHT22;13315;48.274;-1.900;2022-11-15T16:37:08;16.30;80.80
25366;DHT22;13315;48.274;-1.900;2022-11-15T16:39:33;16.30;80.80
25366;DHT22;13315;48.274;-1.900;2022-11-15T16:41:59;16.30;80.90
25366;DHT22;13315;48.274;-1.900;2022-11-15T16:44:25;16.30;81.00
25366;DHT22;13315;48.274;-1.900;2022-11-15T16:46:51;16.30;81.00
25366;DHT22;13315;48.274;-1.900;2022-11-15T16:49:20;16.30;81.50
25366;DHT22;13315;48.274;-1.900;2022-11-15T16:51:46;16.30;81.00
25366;DHT22;13315;48.274;-1.900;2022-11-15T16:54:12;16.30;81.10
25366;DHT22;13315;48.274;-1.900;2022-11-15T16:56:38;16.20;81.00
25366;DHT22;13315;48.274;-1.900;2022-11-15T16:59:04;16.20;81.10
25366;DHT22;13315;48.274;-1.900;2022-11-15T17:01:34;16.20;81.10
25366;DHT22;13315;48.274;-1.900;2022-11-15T17:04:00;16.20;81.10
25366;DHT22;13315;48.274;-1.900;2022-11-15T17:06:37;16.20;81.10
25366;DHT22;13315;48.274;-1.900;2022-11-15T17:09:03;16.20;81.10
25366;DHT22;13315;48.274;-1.900;2022-11-15T17:11:29;16.20;81.10
25366;DHT22;13315;48.274;-1.900;2022-11-15T17:13:58;16.20;81.20
25366;DHT22;13315;48.274;-1.900;2022-11-15T17:16:24;16.20;81.10
25366;DHT22;13315;48.274;-1.900;2022-11-15T17:18:50;16.10;81.30
25366;DHT22;13315;48.274;-1.900;2022-11-15T17:21:16;16.10;81.10